Time;durP1;ratioP1;P1;durP2;ratioP2;P2;SDS_P1;SDS_P2;PMS_P1;PMS_P2;Temp;Humidity;BMP_temperature;BMP_pressure;BME280_temperature;BME280_humidity;BME280_pressure;Samples;Min_cycle;Max_cycle;Signal;HPM_P1;HPM_P2
2023/03/02 00:00:45;;;;;;;20.83;15.97;;;8.50;49.10;;;;;;5042864;28;20523;-76
2023/03/02 00:03:13;;;;;;;19.57;14.80;;;8.50;49.10;;;;;;5052678;28;20468;-77
2023/03/02 00:05:45;;;;;;;18.17;14.57;;;8.50;49.20;;;;;;5044830;28;20826;-77
2023/03/02 00:08:15;;;;;;;20.47;14.70;;;8.50;49.30;;;;;;5040324;28;20440;-76
2023/03/02 00:10:42;;;;;;;21.53;15.93;;;8.40;49.30;;;;;;5053679;28;20544;-77
2023/03/02 00:13:11;;;;;;;23.50;16.73;;;8.40;49.30;;;;;;5042840;28;20541;-76
2023/03/02 00:15:38;;;;;;;21.07;16.00;;;8.40;49.40;;;;;;5050668;28;20444;-76
2023/03/02 00:18:05;;;;;;;23.13;15.73;;;8.30;49.50;;;;;;5051354;28;20472;-77
2023/03/02 00:20:33;;;;;;;18.77;15.23;;;8.30;49.40;;;;;;5042309;28;20998;-77
2023/03/02 00:23:02;;;;;;;21.30;15.67;;;8.40;49.60;;;;;;5040766;28;20452;-77
2023/03/02 00:25:28;;;;;;;18.90;15.43;;;8.30;49.60;;;;;;5039915;28;20468;-77
2023/03/02 00:27:55;;;;;;;20.10;16.40;;;8.30;49.60;;;;;;5043502;28;20828;-77
2023/03/02 00:30:22;;;;;;;21.77;16.13;;;8.30;49.60;;;;;;5039355;28;20441;-76
2023/03/02 00:32:49;;;;;;;21.57;15.60;;;8.30;49.60;;;;;;5045601;28;20459;-76
2023/03/02 00:35:16;;;;;;;22.10;15.50;;;8.30;49.60;;;;;;5048723;28;20897;-77
2023/03/02 00:37:43;;;;;;;20.60;15.33;;;8.30;49.70;;;;;;5039257;28;20539;-76
2023/03/02 00:40:12;;;;;;;23.10;17.10;;;8.30;49.80;;;;;;5042383;28;20988;-75
2023/03/02 00:42:39;;;;;;;22.93;16.27;;;8.30;49.80;;;;;;5041194;28;20456;-76
2023/03/02 00:45:07;;;;;;;21.90;16.67;;;8.30;49.80;;;;;;5035702;28;20456;-77
2023/03/02 00:47:35;;;;;;;20.83;15.63;;;8.30;49.70;;;;;;5034966;28;20463;-76
2023/03/02 00:50:03;;;;;;;22.20;15.93;;;8.30;49.80;;;;;;5039216;28;20444;-76
2023/03/02 00:52:31;;;;;;;22.00;16.43;;;8.30;49.80;;;;;;5045107;28;20475;-77
2023/03/02 00:54:58;;;;;;;21.27;16.17;;;8.30;49.80;;;;;;5044849;28;20964;-77
2023/03/02 00:57:26;;;;;;;22.23;16.43;;;8.30;49.80;;;;;;5039535;28;20456;-76
2023/03/02 00:59:53;;;;;;;23.53;16.80;;;8.30;49.80;;;;;;5046525;28;20502;-77
2023/03/02 01:02:21;;;;;;;23.17;16.70;;;8.20;49.90;;;;;;5054778;28;20450;-76
2023/03/02 01:04:48;;;;;;;21.87;16.67;;;8.20;49.90;;;;;;5054960;28;20456;-77
2023/03/02 01:07:16;;;;;;;22.90;16.10;;;8.20;49.90;;;;;;5034658;28;20568;-76
2023/03/02 01:09:44;;;;;;;24.03;17.40;;;8.20;50.10;;;;;;5034637;28;20438;-78
2023/03/02 01:12:12;;;;;;;22.40;16.60;;;8.20;50.30;;;;;;5033959;28;20447;-76
2023/03/02 01:14:42;;;;;;;22.77;17.23;;;8.20;50.30;;;;;;5045857;28;20480;-76
2023/03/02 01:17:10;;;;;;;23.53;16.70;;;8.10;50.30;;;;;;5045362;28;20499;-76
2023/03/02 01:19:37;;;;;;;23.27;17.77;;;8.10;50.30;;;;;;5054521;28;20999;-76
2023/03/02 01:22:04;;;;;;;23.40;17.13;;;8.10;50.50;;;;;;5054023;28;20571;-76
2023/03/02 01:24:32;;;;;;;21.53;16.90;;;8.00;50.50;;;;;;5053567;28;20543;-76
2023/03/02 01:26:59;;;;;;;25.40;16.70;;;8.00;50.50;;;;;;5054658;28;20964;-76
2023/03/02 01:29:26;;;;;;;22.83;16.10;;;8.00;50.70;;;;;;5054118;28;20455;-77
2023/03/02 01:31:55;;;;;;;24.90;17.47;;;8.00;50.80;;;;;;5053005;28;20460;-77
2023/03/02 01:34:21;;;;;;;21.67;15.50;;;7.90;50.70;;;;;;5053360;28;20448;-75
2023/03/02 01:36:48;;;;;;;22.43;16.40;;;7.90;50.70;;;;;;5054560;28;20452;-76
2023/03/02 01:39:15;;;;;;;22.30;16.43;;;7.90;50.70;;;;;;5054207;28;20452;-76
2023/03/02 01:41:44;;;;;;;23.27;17.53;;;7.90;50.70;;;;;;5054133;28;20476;-76
2023/03/02 01:44:34;;;;;;;21.60;17.20;;;7.90;51.30;;;;;;5048101;28;20498;-76
2023/03/02 01:47:12;;;;;;;21.23;16.23;;;8.00;50.90;;;;;;5034355;28;20455;-77
2023/03/02 01:49:44;;;;;;;23.50;17.20;;;7.90;50.80;;;;;;5001326;28;20485;-77
2023/03/02 01:52:12;;;;;;;23.17;16.70;;;7.90;50.80;;;;;;5034350;28;20440;-76
2023/03/02 01:54:40;;;;;;;22.23;16.30;;;7.90;50.80;;;;;;5033679;28;20457;-78
2023/03/02 01:57:08;;;;;;;24.77;17.37;;;7.90;50.80;;;;;;5033551;28;20531;-77
2023/03/02 01:59:37;;;;;;;24.20;17.13;;;7.90;50.80;;;;;;5035825;28;20499;-75
2023/03/02 02:02:09;;;;;;;23.40;17.03;;;7.90;50.80;;;;;;5040505;28;20457;-76
2023/03/02 02:04:39;;;;;;;22.33;16.93;;;7.90;50.90;;;;;;5033383;28;20980;-75
2023/03/02 02:07:08;;;;;;;22.13;17.00;;;7.90;50.80;;;;;;5052221;28;20467;-75
2023/03/02 02:09:38;;;;;;;23.93;17.03;;;7.90;50.90;;;;;;5053155;28;20452;-75
2023/03/02 02:12:05;;;;;;;22.83;17.00;;;7.90;50.80;;;;;;5052729;28;20441;-76
2023/03/02 02:14:32;;;;;;;22.70;17.23;;;7.90;50.80;;;;;;5053437;28;20432;-76
2023/03/02 02:16:59;;;;;;;23.53;17.37;;;7.90;50.80;;;;;;5051632;28;20472;-75
2023/03/02 02:19:40;;;;;;;24.20;17.60;;;7.90;50.70;;;;;;5053163;28;20563;-75
2023/03/02 02:22:09;;;;;;;25.90;17.57;;;7.90;50.80;;;;;;5044439;28;20453;-76
2023/03/02 02:24:41;;;;;;;24.10;16.97;;;7.90;50.80;;;;;;5053318;28;20456;-75
2023/03/02 02:27:10;;;;;;;20.53;15.67;;;7.90;50.80;;;;;;5053025;28;20472;-75
2023/03/02 02:29:44;;;;;;;22.83;16.50;;;7.90;50.80;;;;;;5053228;28;20855;-76
2023/03/02 02:32:15;;;;;;;21.83;16.53;;;7.90;50.80;;;;;;5053273;28;20460;-75
2023/03/02 02:34:46;;;;;;;23.30;15.53;;;7.90;50.80;;;;;;5053197;28;20476;-75
2023/03/02 02:37:20;;;;;;;25.45;17.35;;;7.90;50.80;;;;;;5039287;28;20506;-75
2023/03/02 02:39:49;;;;;;;22.33;17.37;;;7.80;50.80;;;;;;5047515;28;20221;-75
2023/03/02 02:42:21;;;;;;;25.93;17.27;;;7.80;50.90;;;;;;5033154;28;20472;-75
2023/03/02 02:44:48;;;;;;;26.27;17.80;;;7.80;51.00;;;;;;5033322;28;20528;-75
2023/03/02 02:47:17;;;;;;;23.57;16.67;;;7.70;51.00;;;;;;5031950;28;20476;-75
2023/03/02 02:49:46;;;;;;;26.20;17.83;;;7.70;51.10;;;;;;5046462;28;20495;-75
2023/03/02 02:52:16;;;;;;;23.20;16.80;;;7.70;51.20;;;;;;5052866;28;20202;-75
2023/03/02 02:54:45;;;;;;;26.90;17.60;;;7.70;51.10;;;;;;5051664;28;20441;-75
2023/03/02 02:57:16;;;;;;;24.63;17.87;;;7.70;51.00;;;;;;5052376;28;20472;-75
2023/03/02 02:59:48;;;;;;;23.67;17.00;;;7.70;51.00;;;;;;5051664;28;20451;-76
2023/03/02 03:02:20;;;;;;;23.13;17.33;;;7.70;51.10;;;;;;5043562;28;20861;-75
2023/03/02 03:04:47;;;;;;;22.80;16.60;;;7.70;51.00;;;;;;5034387;28;20458;-76
2023/03/02 03:07:18;;;;;;;24.27;17.47;;;7.70;51.10;;;;;;5035762;28;20449;-76
2023/03/02 03:09:48;;;;;;;23.93;16.87;;;7.70;51.00;;;;;;5036675;28;20523;-75
2023/03/02 03:12:21;;;;;;;24.97;17.43;;;7.70;51.00;;;;;;5036104;28;20453;-75
2023/03/02 03:14:50;;;;;;;23.90;16.40;;;7.70;51.00;;;;;;5036873;28;20529;-74
2023/03/02 03:17:17;;;;;;;23.17;17.43;;;7.80;51.00;;;;;;5043600;28;20995;-76
2023/03/02 03:19:46;;;;;;;26.05;16.80;;;7.80;50.90;;;;;;5055109;28;20941;-76
2023/03/02 03:22:14;;;;;;;24.90;17.57;;;7.80;51.00;;;;;;5036708;28;20297;-76
2023/03/02 03:24:43;;;;;;;22.93;17.63;;;7.80;51.00;;;;;;5049629;28;20474;-77
2023/03/02 03:27:13;;;;;;;24.63;17.23;;;7.80;50.90;;;;;;5056161;28;20499;-75
2023/03/02 03:29:45;;;;;;;24.03;16.90;;;7.80;50.90;;;;;;5050962;28;20455;-78
2023/03/02 03:32:14;;;;;;;23.87;17.03;;;7.80;50.90;;;;;;5036406;28;20441;-75
2023/03/02 03:34:41;;;;;;;26.77;17.73;;;7.80;50.90;;;;;;5049180;28;20463;-75
2023/03/02 03:37:09;;;;;;;23.20;17.07;;;7.80;50.90;;;;;;5038873;28;20541;-77
2023/03/02 03:39:36;;;;;;;23.27;17.33;;;7.80;51.00;;;;;;5036163;28;20448;-76
2023/03/02 03:42:03;;;;;;;24.03;17.10;;;7.80;50.80;;;;;;5053770;28;20476;-76
2023/03/02 03:44:30;;;;;;;22.93;17.83;;;7.70;50.80;;;;;;5056040;28;20482;-76
2023/03/02 03:46:58;;;;;;;24.40;18.33;;;7.70;50.80;;;;;;5056001;28;20451;-77
2023/03/02 03:49:27;;;;;;;24.60;17.57;;;7.80;51.00;;;;;;5055935;28;20452;-76
2023/03/02 03:51:54;;;;;;;23.07;16.83;;;7.60;50.90;;;;;;5056059;28;20470;-76
2023/03/02 03:54:21;;;;;;;22.60;17.20;;;7.60;51.00;;;;;;5056020;28;20541;-76
2023/03/02 03:56:50;;;;;;;24.33;17.93;;;7.60;51.00;;;;;;5055901;28;20460;-76
2023/03/02 03:59:19;;;;;;;29.03;17.37;;;7.50;51.00;;;;;;5050115;28;20823;-77
2023/03/02 04:01:49;;;;;;;24.97;17.40;;;7.60;51.00;;;;;;5035571;28;20480;-75
2023/03/02 04:04:18;;;;;;;23.95;17.33;;;7.50;51.00;;;;;;5035737;28;20449;-75
2023/03/02 04:06:46;;;;;;;24.13;17.07;;;7.50;51.10;;;;;;5035802;28;20590;-76
2023/03/02 04:09:14;;;;;;;24.37;17.37;;;7.40;51.10;;;;;;5044261;28;20456;-75
2023/03/02 04:11:43;;;;;;;24.77;17.47;;;7.40;51.20;;;;;;5055231;28;20458;-75
2023/03/02 04:14:11;;;;;;;23.20;16.60;;;7.40;51.40;;;;;;5041954;28;20477;-75
2023/03/02 04:16:39;;;;;;;23.30;16.97;;;7.40;51.40;;;;;;5055561;28;20523;-75
2023/03/02 04:19:08;;;;;;;26.43;17.70;;;7.30;51.30;;;;;;5055421;28;20562;-77
2023/03/02 04:21:35;;;;;;;24.40;17.37;;;7.30;51.50;;;;;;5042187;28;20497;-75
2023/03/02 04:24:04;;;;;;;21.90;16.23;;;7.20;51.40;;;;;;5044585;28;20458;-77
2023/03/02 04:26:31;;;;;;;21.20;16.53;;;7.20;51.60;;;;;;5039103;28;20808;-75
2023/03/02 04:28:57;;;;;;;23.85;18.20;;;7.10;51.70;;;;;;5054148;28;20472;-76
2023/03/02 04:31:25;;;;;;;25.07;17.97;;;7.00;51.60;;;;;;5052752;28;20202;-75
2023/03/02 04:33:52;;;;;;;25.88;18.15;;;7.00;51.70;;;;;;5053896;28;20466;-78
2023/03/02 04:36:19;;;;;;;23.67;17.03;;;7.00;51.80;;;;;;5055404;28;20226;-75
2023/03/02 04:38:46;;;;;;;21.93;15.70;;;6.90;52.00;;;;;;5055277;28;20948;-76
2023/03/02 04:41:14;;;;;;;22.47;16.70;;;6.70;51.80;;;;;;5055163;28;21037;-77
2023/03/02 04:43:41;;;;;;;26.35;16.88;;;6.80;52.00;;;;;;5055146;28;20487;-75
2023/03/02 04:46:10;;;;;;;24.07;15.40;;;6.70;51.90;;;;;;5039107;28;20560;-75
2023/03/02 04:48:37;;;;;;;22.33;16.55;;;6.70;52.70;;;;;;5035581;28;20486;-76
2023/03/02 04:51:04;;;;;;;21.52;16.13;;;6.70;52.40;;;;;;5034905;28;20202;-75
2023/03/02 04:53:31;;;;;;;23.08;15.10;;;6.60;52.20;;;;;;5035464;28;20324;-76
2023/03/02 04:55:58;;;;;;;22.00;15.35;;;6.60;52.30;;;;;;5035039;28;20219;-75
2023/03/02 04:58:27;;;;;;;20.33;14.43;;;6.50;52.30;;;;;;5035144;28;20713;-76
2023/03/02 05:01:00;;;;;;;20.60;15.75;;;6.50;52.30;;;;;;5043964;28;20490;-76
2023/03/02 05:03:27;;;;;;;23.00;17.15;;;6.60;52.50;;;;;;5054173;28;20194;-75
2023/03/02 05:05:56;;;;;;;23.85;15.88;;;6.50;52.40;;;;;;5051587;28;20808;-75
2023/03/02 05:08:24;;;;;;;22.95;15.63;;;6.40;52.40;;;;;;5050588;28;20260;-75
2023/03/02 05:10:51;;;;;;;21.73;15.38;;;6.50;52.60;;;;;;5054695;28;20201;-76
2023/03/02 05:13:17;;;;;;;19.27;14.85;;;6.40;52.60;;;;;;5054087;28;20202;-75
2023/03/02 05:15:46;;;;;;;23.40;14.83;;;6.30;52.60;;;;;;5054360;28;20286;-76
2023/03/02 05:18:13;;;;;;;22.93;16.27;;;6.30;52.70;;;;;;5054787;28;20478;-76
2023/03/02 05:20:40;;;;;;;22.17;16.05;;;6.30;52.80;;;;;;5054185;28;20489;-75
2023/03/02 05:23:08;;;;;;;21.35;15.13;;;6.20;52.80;;;;;;5054372;28;20297;-75
2023/03/02 05:25:37;;;;;;;21.55;14.68;;;6.20;52.90;;;;;;5054123;28;20309;-75
2023/03/02 05:28:05;;;;;;;22.60;15.82;;;6.20;53.00;;;;;;5051644;28;20205;-75
2023/03/02 05:30:36;;;;;;;22.10;15.70;;;6.20;53.10;;;;;;5053118;28;20662;-74
2023/03/02 05:33:04;;;;;;;24.15;16.25;;;6.20;53.20;;;;;;5053433;28;20278;-74
2023/03/02 05:35:31;;;;;;;23.50;16.02;;;6.20;53.30;;;;;;5054142;28;20202;-76
2023/03/02 05:37:58;;;;;;;19.70;15.20;;;6.10;53.30;;;;;;5053985;28;20702;-75
2023/03/02 05:40:25;;;;;;;24.63;16.90;;;6.10;53.30;;;;;;5054083;28;20236;-75
2023/03/02 05:42:52;;;;;;;23.55;16.88;;;6.00;53.40;;;;;;5054422;28;20190;-75
2023/03/02 05:45:22;;;;;;;20.73;15.27;;;6.00;53.40;;;;;;5043614;28;20293;-75
2023/03/02 05:47:49;;;;;;;20.50;15.73;;;6.10;53.50;;;;;;5054205;28;20234;-74
2023/03/02 05:50:18;;;;;;;22.03;15.77;;;6.00;53.50;;;;;;5053652;28;20210;-75
2023/03/02 05:52:45;;;;;;;22.75;16.10;;;6.00;53.40;;;;;;5054199;28;20451;-74
2023/03/02 05:55:12;;;;;;;24.92;16.63;;;6.00;53.50;;;;;;5047616;28;20222;-75
2023/03/02 05:57:40;;;;;;;23.65;16.70;;;6.00;53.60;;;;;;5034069;28;20304;-75
2023/03/02 06:00:09;;;;;;;23.08;16.40;;;6.00;53.50;;;;;;5034147;28;20576;-75
2023/03/02 06:02:38;;;;;;;22.33;15.83;;;6.00;53.60;;;;;;5040534;28;20218;-75
2023/03/02 06:05:06;;;;;;;27.30;16.98;;;6.00;53.60;;;;;;5032875;28;20934;-74
2023/03/02 06:07:34;;;;;;;22.65;16.20;;;5.90;53.60;;;;;;5032945;28;20230;-75
2023/03/02 06:10:01;;;;;;;21.98;15.68;;;5.90;53.50;;;;;;5052822;28;20216;-75
2023/03/02 06:12:28;;;;;;;22.48;16.40;;;5.90;53.60;;;;;;5050010;28;20654;-76
2023/03/02 06:14:55;;;;;;;27.50;16.95;;;5.90;53.70;;;;;;5050410;28;20716;-77
2023/03/02 06:17:22;;;;;;;22.00;16.27;;;5.90;53.80;;;;;;5052975;28;20317;-76
2023/03/02 06:19:49;;;;;;;21.10;15.48;;;5.90;53.70;;;;;;5052998;28;20729;-78
2023/03/02 06:22:15;;;;;;;23.75;15.90;;;5.90;53.80;;;;;;5053402;28;20237;-75
2023/03/02 06:24:44;;;;;;;22.70;16.23;;;5.90;53.80;;;;;;5046033;28;20209;-77
2023/03/02 06:27:12;;;;;;;24.40;16.50;;;5.90;53.90;;;;;;5043382;28;20290;-77
2023/03/02 06:29:39;;;;;;;24.27;17.25;;;5.90;53.90;;;;;;5053076;28;20300;-78
2023/03/02 06:32:06;;;;;;;26.83;17.13;;;5.90;54.00;;;;;;5050015;28;20216;-72
2023/03/02 06:34:33;;;;;;;27.25;16.77;;;5.90;53.90;;;;;;5043520;28;20616;-72
2023/03/02 06:37:00;;;;;;;25.85;16.65;;;5.90;54.00;;;;;;5045319;28;20301;-71
2023/03/02 06:39:27;;;;;;;22.48;16.75;;;6.00;54.10;;;;;;5045158;28;20728;-72
2023/03/02 06:41:55;;;;;;;26.10;17.05;;;6.00;54.30;;;;;;5037622;28;20217;-72
2023/03/02 06:44:22;;;;;;;24.30;17.00;;;5.90;54.10;;;;;;5049305;28;20192;-73
2023/03/02 06:46:49;;;;;;;24.65;16.92;;;5.90;54.20;;;;;;5046205;28;20213;-74
2023/03/02 06:49:16;;;;;;;22.52;15.68;;;6.00;54.30;;;;;;5040395;28;20202;-74
2023/03/02 06:51:43;;;;;;;23.02;15.85;;;6.00;54.30;;;;;;5068292;28;20275;-73
2023/03/02 06:54:09;;;;;;;21.90;15.60;;;6.00;54.30;;;;;;5072542;28;20210;-74
2023/03/02 06:56:36;;;;;;;24.65;15.07;;;6.00;54.30;;;;;;5060867;28;20244;-73
2023/03/02 06:59:05;;;;;;;22.67;15.80;;;6.00;54.30;;;;;;5049784;28;20213;-75
2023/03/02 07:01:34;;;;;;;25.77;16.27;;;6.10;54.50;;;;;;5051904;28;20719;-74
2023/03/02 07:04:01;;;;;;;22.65;15.63;;;6.10;54.40;;;;;;5052481;28;20226;-74
2023/03/02 07:06:28;;;;;;;24.38;16.58;;;6.10;54.40;;;;;;5051864;28;20241;-76
2023/03/02 07:08:55;;;;;;;21.15;15.23;;;6.20;54.60;;;;;;5044727;28;20250;-75
2023/03/02 07:11:22;;;;;;;23.58;16.90;;;6.20;54.60;;;;;;5047879;28;20308;-75
2023/03/02 07:13:49;;;;;;;21.50;15.30;;;6.20;54.60;;;;;;5041185;28;20206;-75
2023/03/02 07:16:18;;;;;;;23.38;16.10;;;6.30;54.80;;;;;;5047918;28;20225;-74
2023/03/02 07:18:45;;;;;;;21.00;15.88;;;6.30;54.80;;;;;;5051660;28;20241;-75
2023/03/02 07:21:11;;;;;;;21.77;15.90;;;6.40;54.80;;;;;;5050573;28;20257;-75
2023/03/02 07:23:38;;;;;;;24.55;16.65;;;6.40;54.70;;;;;;5040938;28;20763;-75
2023/03/02 07:26:07;;;;;;;26.40;16.35;;;6.50;54.90;;;;;;5047294;28;20282;-75
2023/03/02 07:28:35;;;;;;;25.45;17.33;;;6.60;55.00;;;;;;5036030;28;20230;-75
2023/03/02 07:31:02;;;;;;;23.75;16.27;;;6.70;55.00;;;;;;5031823;28;20252;-74
2023/03/02 07:33:30;;;;;;;25.63;16.85;;;6.80;54.80;;;;;;5032394;28;20782;-75
2023/03/02 07:35:57;;;;;;;26.23;17.20;;;6.80;54.70;;;;;;5031946;28;20301;-75
2023/03/02 07:38:24;;;;;;;24.33;15.97;;;6.90;54.60;;;;;;5032473;28;20535;-76
2023/03/02 07:40:51;;;;;;;25.97;16.83;;;7.00;54.50;;;;;;5038122;28;20544;-76
2023/03/02 07:43:18;;;;;;;26.50;16.83;;;7.00;54.40;;;;;;5047248;28;20527;-76
2023/03/02 07:45:46;;;;;;;22.63;16.23;;;7.10;54.20;;;;;;5051737;28;20535;-75
2023/03/02 07:48:12;;;;;;;23.40;17.77;;;7.20;54.20;;;;;;5049991;28;20470;-74
2023/03/02 07:50:41;;;;;;;23.30;16.23;;;7.30;54.20;;;;;;5051314;28;20508;-75
2023/03/02 07:53:08;;;;;;;25.40;18.00;;;7.40;54.00;;;;;;5043991;28;20532;-76
2023/03/02 07:55:35;;;;;;;24.77;17.53;;;7.40;53.90;;;;;;5034846;28;21052;-76
2023/03/02 07:58:02;;;;;;;24.97;16.73;;;7.60;53.90;;;;;;5034908;28;20552;-76
2023/03/02 08:00:29;;;;;;;23.80;16.33;;;7.70;53.80;;;;;;5034940;28;20461;-75
2023/03/02 08:02:56;;;;;;;24.17;17.87;;;7.80;53.90;;;;;;5039109;28;20875;-74
2023/03/02 08:05:23;;;;;;;21.20;16.03;;;7.90;53.90;;;;;;5055350;28;20487;-75
2023/03/02 08:07:51;;;;;;;23.63;16.93;;;8.00;53.70;;;;;;5053858;28;20492;-74
2023/03/02 08:10:18;;;;;;;22.63;16.33;;;8.20;53.70;;;;;;5035414;28;20866;-75
2023/03/02 08:12:45;;;;;;;24.00;16.93;;;8.30;53.50;;;;;;5034858;28;20537;-75
2023/03/02 08:15:12;;;;;;;22.87;16.93;;;8.40;53.20;;;;;;5035172;28;20852;-76
2023/03/02 08:17:39;;;;;;;23.27;16.10;;;8.50;53.20;;;;;;5034653;28;20509;-74
2023/03/02 08:20:07;;;;;;;22.47;16.37;;;8.60;53.20;;;;;;5034775;28;20453;-74
2023/03/02 08:22:34;;;;;;;23.40;16.43;;;8.80;53.10;;;;;;5034529;28;21097;-75
2023/03/02 08:25:02;;;;;;;21.93;15.97;;;8.80;52.60;;;;;;5035108;28;20513;-75
2023/03/02 08:27:29;;;;;;;20.67;14.80;;;8.90;52.20;;;;;;5034346;28;20968;-75
2023/03/02 08:29:56;;;;;;;24.03;17.10;;;9.00;51.90;;;;;;5034613;28;20479;-74
2023/03/02 08:32:23;;;;;;;23.47;15.77;;;9.10;51.90;;;;;;5041710;28;20476;-74
2023/03/02 08:34:50;;;;;;;22.37;16.77;;;9.10;51.70;;;;;;5054706;28;20845;-73
2023/03/02 08:37:17;;;;;;;22.97;16.80;;;9.20;52.10;;;;;;5054836;28;20480;-74
2023/03/02 08:39:44;;;;;;;22.00;16.07;;;9.30;52.00;;;;;;5054846;28;20483;-77
2023/03/02 08:42:13;;;;;;;21.30;16.73;;;9.50;51.90;;;;;;5054523;28;20932;-75
2023/03/02 08:44:39;;;;;;;19.47;15.93;;;9.60;51.80;;;;;;5054371;28;20444;-75
2023/03/02 08:47:06;;;;;;;23.03;16.63;;;9.80;51.70;;;;;;5053894;28;20492;-75
2023/03/02 08:49:33;;;;;;;24.87;17.27;;;9.80;51.40;;;;;;5054290;28;20479;-75
2023/03/02 08:52:00;;;;;;;22.07;15.90;;;9.90;50.30;;;;;;5054419;28;20539;-75
2023/03/02 08:54:27;;;;;;;19.77;15.53;;;9.90;50.00;;;;;;5054240;28;20462;-75
2023/03/02 08:56:54;;;;;;;24.23;15.83;;;10.00;49.30;;;;;;5053606;28;20523;-75
2023/03/02 08:59:22;;;;;;;22.70;15.80;;;10.00;48.90;;;;;;5054413;28;21005;-75
2023/03/02 09:01:49;;;;;;;22.10;15.43;;;10.10;48.60;;;;;;5053498;28;20516;-76
2023/03/02 09:04:17;;;;;;;22.57;15.03;;;10.30;48.90;;;;;;5053139;28;20441;-75
2023/03/02 09:06:45;;;;;;;22.07;15.60;;;10.30;48.90;;;;;;5054530;28;20456;-74
2023/03/02 09:09:13;;;;;;;19.73;14.73;;;10.30;48.30;;;;;;5053721;28;20522;-74
2023/03/02 09:11:42;;;;;;;20.00;15.17;;;10.40;48.30;;;;;;5053840;28;20484;-75
2023/03/02 09:14:10;;;;;;;19.23;15.37;;;10.50;48.40;;;;;;5053770;28;20452;-75
2023/03/02 09:16:38;;;;;;;20.30;15.03;;;10.60;48.30;;;;;;5040773;28;20504;-76
2023/03/02 09:19:05;;;;;;;19.90;15.30;;;10.60;48.00;;;;;;5033791;28;21115;-76
2023/03/02 09:21:32;;;;;;;21.57;15.17;;;10.70;47.80;;;;;;5033591;28;20909;-75
2023/03/02 09:23:59;;;;;;;20.57;15.07;;;10.90;48.00;;;;;;5033713;28;20445;-75
2023/03/02 09:26:26;;;;;;;24.07;16.43;;;11.00;48.00;;;;;;5033373;28;20540;-75
2023/03/02 09:28:53;;;;;;;20.60;15.73;;;11.10;47.30;;;;;;5033244;28;20520;-75
2023/03/02 09:31:21;;;;;;;21.47;16.37;;;11.20;47.10;;;;;;5033534;28;20489;-76
2023/03/02 09:33:49;;;;;;;21.50;15.83;;;11.30;47.50;;;;;;5033672;28;20532;-76
2023/03/02 09:36:20;;;;;;;20.03;16.30;;;11.40;47.00;;;;;;5033671;28;20530;-76
2023/03/02 09:38:47;;;;;;;20.00;16.10;;;11.50;47.20;;;;;;5033284;28;20473;-77
2023/03/02 09:41:59;;;;;;;20.37;15.60;;;11.60;47.30;;;;;;5033047;28;21142;-76
2023/03/02 09:44:46;;;;;;;18.87;14.57;;;11.70;46.30;;;;;;5005559;28;20452;-76
2023/03/02 09:47:18;;;;;;;20.90;15.63;;;11.90;46.60;;;;;;5033163;28;20564;-75
2023/03/02 09:49:58;;;;;;;18.70;14.80;;;12.00;46.60;;;;;;5033641;28;20812;-74
2023/03/02 09:52:31;;;;;;;18.73;15.07;;;12.10;46.30;;;;;;5033693;28;21161;-75
2023/03/02 09:55:01;;;;;;;19.10;13.83;;;12.30;46.40;;;;;;5033361;28;20543;-76
2023/03/02 09:57:33;;;;;;;20.33;16.07;;;12.60;46.00;;;;;;5033284;28;20457;-75
2023/03/02 10:00:03;;;;;;;18.87;15.63;;;12.70;45.60;;;;;;5033545;28;20445;-75
2023/03/02 10:02:35;;;;;;;17.90;14.40;;;12.80;45.40;;;;;;5033299;28;20489;-76
2023/03/02 10:05:12;;;;;;;16.87;14.23;;;13.00;45.40;;;;;;5033654;28;20516;-76
2023/03/02 10:07:40;;;;;;;17.83;13.77;;;13.10;44.90;;;;;;5032695;28;20487;-75
2023/03/02 10:10:26;;;;;;;18.00;14.77;;;13.30;45.00;;;;;;5033453;28;20492;-76
2023/03/02 10:13:16;;;;;;;17.33;13.47;;;13.50;44.90;;;;;;5033231;28;20461;-75
2023/03/02 10:15:51;;;;;;;16.90;13.50;;;13.70;44.50;;;;;;5032859;28;20559;-75
2023/03/02 10:18:22;;;;;;;19.50;15.43;;;13.90;44.30;;;;;;5032936;28;20515;-76
2023/03/02 10:20:55;;;;;;;17.93;13.77;;;14.00;43.90;;;;;;5032982;28;20519;-75
2023/03/02 10:23:35;;;;;;;16.90;14.47;;;14.00;43.40;;;;;;5032445;28;20527;-76
2023/03/02 10:26:13;;;;;;;17.10;14.67;;;14.10;43.20;;;;;;5033055;28;20470;-75
2023/03/02 10:28:48;;;;;;;18.33;13.70;;;14.10;42.90;;;;;;5032817;28;20892;-76
2023/03/02 10:31:23;;;;;;;19.27;14.77;;;14.10;42.90;;;;;;5033029;28;20499;-75
2023/03/02 10:33:50;;;;;;;17.53;13.93;;;14.20;42.90;;;;;;5032530;28;21006;-76
2023/03/02 10:36:23;;;;;;;20.03;15.53;;;14.30;42.60;;;;;;5032608;28;20437;-75
2023/03/02 10:38:51;;;;;;;16.87;13.83;;;14.40;42.90;;;;;;5032326;28;20440;-76
2023/03/02 10:41:24;;;;;;;18.30;14.57;;;14.50;43.10;;;;;;5032666;28;20627;-78
2023/03/02 10:43:54;;;;;;;18.70;13.50;;;14.60;42.90;;;;;;5032805;28;20473;-76
2023/03/02 10:46:21;;;;;;;15.13;12.93;;;14.70;42.60;;;;;;5032888;28;20529;-77
2023/03/02 10:48:50;;;;;;;18.13;14.10;;;14.80;41.80;;;;;;5032297;28;20485;-76
2023/03/02 10:51:29;;;;;;;20.67;14.63;;;14.90;42.00;;;;;;5031998;28;20449;-76
2023/03/02 10:54:09;;;;;;;18.60;14.90;;;14.90;41.80;;;;;;5031980;28;20468;-75
2023/03/02 10:56:36;;;;;;;18.60;14.37;;;14.90;41.40;;;;;;5032397;28;20511;-77
2023/03/02 10:59:27;;;;;;;16.60;14.17;;;15.00;41.80;;;;;;5032336;28;20584;-75
2023/03/02 11:01:59;;;;;;;16.73;14.20;;;15.10;41.90;;;;;;5032508;28;20495;-77
2023/03/02 11:04:26;;;;;;;17.03;14.17;;;15.30;41.70;;;;;;5032544;28;20469;-77
2023/03/02 11:06:54;;;;;;;18.70;15.13;;;15.30;41.10;;;;;;5032086;28;21210;-77
2023/03/02 11:09:21;;;;;;;18.57;14.13;;;15.30;40.90;;;;;;5045952;28;20452;-77
2023/03/02 11:11:55;;;;;;;19.60;13.67;;;15.30;40.90;;;;;;5052554;28;20448;-78
2023/03/02 11:14:22;;;;;;;21.00;15.20;;;15.30;41.00;;;;;;5049928;28;20504;-77
2023/03/02 11:16:51;;;;;;;18.50;14.57;;;15.40;40.90;;;;;;5032200;28;20481;-76
2023/03/02 11:19:34;;;;;;;16.30;14.20;;;15.50;40.90;;;;;;5034238;28;20476;-77
2023/03/02 11:22:09;;;;;;;17.80;14.53;;;15.60;40.50;;;;;;5032818;28;20437;-78
2023/03/02 11:24:42;;;;;;;16.67;14.03;;;15.70;40.60;;;;;;5032164;28;20942;-77
2023/03/02 11:27:14;;;;;;;18.03;14.20;;;15.80;40.60;;;;;;5032656;28;20532;-76
2023/03/02 11:29:46;;;;;;;16.00;14.07;;;15.90;40.90;;;;;;5035792;28;20487;-76
2023/03/02 11:32:18;;;;;;;15.90;14.03;;;16.00;40.10;;;;;;5036162;28;20433;-77
2023/03/02 11:34:49;;;;;;;18.00;14.37;;;16.10;40.50;;;;;;5036474;28;20465;-76
2023/03/02 11:37:21;;;;;;;18.90;15.17;;;16.30;40.00;;;;;;5035907;28;20503;-77
2023/03/02 11:40:13;;;;;;;17.53;14.10;;;16.40;39.60;;;;;;5036106;28;20559;-76
2023/03/02 11:42:43;;;;;;;16.27;13.87;;;16.50;40.10;;;;;;5036068;28;20499;-77
2023/03/02 11:45:19;;;;;;;18.47;15.33;;;16.70;40.00;;;;;;5035579;28;20449;-79
2023/03/02 11:47:50;;;;;;;18.07;14.17;;;16.70;38.80;;;;;;5035693;28;20504;-76
2023/03/02 11:50:18;;;;;;;15.47;13.57;;;16.70;39.80;;;;;;5050538;28;20451;-76
2023/03/02 11:52:50;;;;;;;18.87;14.97;;;16.90;39.00;;;;;;5051996;28;20920;-78
2023/03/02 11:55:21;;;;;;;15.20;13.13;;;16.90;38.80;;;;;;5036031;28;20519;-78
2023/03/02 11:57:51;;;;;;;18.87;15.10;;;17.00;39.10;;;;;;5035458;28;20522;-78
2023/03/02 12:00:28;;;;;;;15.73;14.03;;;17.10;38.80;;;;;;5035724;28;20515;-79
2023/03/02 12:03:01;;;;;;;17.80;14.23;;;17.20;38.70;;;;;;5053827;28;20507;-77
2023/03/02 12:05:30;;;;;;;17.63;15.30;;;17.20;38.30;;;;;;5055222;28;20490;-77
2023/03/02 12:08:00;;;;;;;17.13;14.20;;;17.40;38.30;;;;;;5055109;28;20972;-77
2023/03/02 12:10:34;;;;;;;15.47;12.90;;;17.40;38.30;;;;;;5055578;28;20436;-77
2023/03/02 12:13:15;;;;;;;19.10;14.60;;;17.60;38.70;;;;;;5044148;28;20471;-76
2023/03/02 12:15:44;;;;;;;17.37;14.20;;;17.70;38.80;;;;;;5035390;28;20476;-78
2023/03/02 12:18:45;;;;;;;17.93;14.87;;;17.80;38.00;;;;;;5035410;28;20527;-77
2023/03/02 12:21:14;;;;;;;17.00;14.17;;;17.80;37.30;;;;;;5041595;28;20476;-77
2023/03/02 12:23:57;;;;;;;18.47;14.63;;;17.90;38.00;;;;;;5055103;28;20499;-75
2023/03/02 12:26:29;;;;;;;16.43;14.60;;;18.00;37.70;;;;;;5035715;28;20467;-77
2023/03/02 12:29:00;;;;;;;16.67;14.93;;;18.20;37.60;;;;;;5035101;28;20445;-76
2023/03/02 12:31:39;;;;;;;18.47;14.57;;;18.30;37.40;;;;;;5046943;28;20486;-78
2023/03/02 12:34:32;;;;;;;17.40;14.57;;;18.40;37.10;;;;;;5034536;28;20530;-77
2023/03/02 12:37:04;;;;;;;15.90;14.17;;;18.50;37.70;;;;;;5035001;28;20210;-77
2023/03/02 12:39:50;;;;;;;18.20;15.00;;;18.70;37.60;;;;;;5034826;28;20496;-77
2023/03/02 12:42:48;;;;;;;16.07;14.37;;;18.80;36.80;;;;;;5034513;28;20231;-77
2023/03/02 12:45:28;;;;;;;17.60;15.63;;;18.90;36.80;;;;;;5022752;28;20485;-78